createdAt,value
2019-02-18T00:01:55.531Z,6.53
2019-02-18T00:06:51.413Z,7.27
2019-02-18T00:11:47.601Z,6.97
2019-02-18T00:16:44.443Z,6.30
2019-02-18T00:21:40.119Z,6.23
2019-02-18T00:26:36.041Z,7.47
2019-02-18T00:31:31.814Z,7.27
2019-02-18T00:36:27.671Z,6.60
2019-02-18T00:41:23.357Z,6.93
2019-02-18T00:46:19.372Z,6.33
2019-02-18T00:51:15.112Z,6.57
2019-02-18T00:56:11.342Z,6.27
2019-02-18T01:01:07.119Z,6.20
2019-02-18T01:06:03.111Z,6.50
2019-02-18T01:10:58.779Z,6.07
2019-02-18T01:15:54.767Z,5.83
2019-02-18T01:20:51.085Z,6.73
2019-02-18T01:25:47.297Z,6.50
2019-02-18T01:30:42.973Z,6.50
2019-02-18T01:35:38.953Z,6.77
2019-02-18T01:40:34.839Z,7.37
2019-02-18T01:45:30.961Z,7.47
2019-02-18T01:50:26.631Z,7.43
2019-02-18T01:55:22.627Z,7.37
2019-02-18T02:00:18.302Z,6.73
2019-02-18T02:05:15.539Z,7.20
2019-02-18T02:10:12.539Z,6.93
2019-02-18T02:15:13.235Z,6.80
2019-02-18T02:20:09.017Z,6.57
2019-02-18T02:25:05.619Z,6.47
2019-02-18T02:30:01.303Z,6.37
2019-02-18T02:34:57.399Z,7.13
2019-02-18T02:39:53.099Z,5.80
2019-02-18T02:44:49.058Z,6.03
2019-02-18T02:49:44.791Z,6.43
2019-02-18T02:54:40.672Z,6.00
2019-02-18T02:59:36.475Z,5.87
2019-02-18T03:04:32.440Z,6.37
2019-02-18T03:09:28.225Z,6.40
2019-02-18T03:14:24.136Z,6.07
2019-02-18T03:19:19.893Z,6.43
2019-02-18T03:24:15.777Z,6.40
2019-02-18T03:29:26.367Z,6.67
2019-02-18T03:34:23.950Z,6.60
2019-02-18T03:39:19.941Z,6.40
2019-02-18T03:44:15.903Z,6.23
2019-02-18T03:49:11.812Z,6.97
2019-02-18T03:54:07.495Z,6.60
2019-02-18T03:59:03.659Z,6.53
2019-02-18T04:03:59.435Z,6.57
2019-02-18T04:08:55.644Z,7.13
2019-02-18T04:13:51.435Z,6.87
2019-02-18T04:18:47.547Z,7.30
2019-02-18T04:23:43.240Z,6.77
2019-02-18T04:28:39.193Z,6.77
2019-02-18T04:33:35.555Z,7.27
2019-02-18T04:38:31.453Z,7.47
2019-02-18T04:43:27.215Z,6.67
2019-02-18T04:48:23.070Z,6.73
2019-02-18T04:53:18.747Z,6.30
2019-02-18T04:58:14.665Z,6.67
2019-02-18T05:03:10.352Z,6.17
2019-02-18T05:08:06.305Z,6.40
2019-02-18T05:13:01.991Z,6.47
2019-02-18T05:17:57.884Z,6.50
2019-02-18T05:22:53.571Z,7.07
2019-02-18T05:27:49.607Z,6.63
2019-02-18T05:32:46.333Z,7.10
2019-02-18T05:37:42.228Z,7.30
2019-02-18T05:42:38.006Z,6.80
2019-02-18T05:47:33.882Z,7.23
2019-02-18T05:52:29.554Z,7.07
2019-02-18T05:57:25.466Z,6.77
2019-02-18T06:02:21.981Z,6.20
2019-02-18T06:07:17.852Z,7.03
2019-02-18T06:12:13.631Z,7.23
2019-02-18T06:17:09.553Z,7.23
2019-02-18T06:22:05.337Z,7.17
2019-02-18T06:27:01.458Z,7.50
2019-02-18T06:31:57.142Z,7.20
2019-02-18T06:36:53.703Z,6.87
2019-02-18T06:41:49.376Z,7.17
2019-02-18T06:46:47.607Z,7.53
2019-02-18T06:51:43.290Z,7.03
2019-02-18T06:56:49.915Z,6.90
2019-02-18T07:01:50.358Z,8.40
2019-02-18T07:06:51.274Z,8.43
2019-02-18T07:11:55.221Z,9.20
2019-02-18T07:16:50.921Z,8.70
2019-02-18T07:21:47.168Z,9.20
2019-02-18T07:26:42.859Z,8.87
2019-02-18T07:31:38.799Z,9.17
2019-02-18T07:36:35.143Z,9.93
2019-02-18T07:41:32.023Z,9.97
2019-02-18T07:46:27.715Z,11.10
2019-02-18T07:51:24.282Z,11.73
2019-02-18T07:56:19.961Z,11.67
2019-02-18T08:01:16.093Z,12.20
2019-02-18T08:06:11.778Z,11.63
2019-02-18T08:11:07.642Z,13.07
2019-02-18T08:16:03.372Z,14.53
2019-02-18T08:20:59.621Z,15.47
2019-02-18T08:25:55.285Z,14.68
2019-02-18T08:30:51.158Z,13.75
2019-02-18T08:35:46.848Z,15.45
2019-02-18T08:40:42.739Z,16.07
2019-02-18T08:45:39.071Z,15.35
2019-02-18T08:50:34.941Z,13.00
2019-02-18T08:55:30.625Z,12.23
2019-02-18T09:00:26.596Z,12.45
2019-02-18T09:05:22.378Z,14.00
2019-02-18T09:10:18.494Z,12.35
2019-02-18T09:15:14.571Z,13.03
2019-02-18T09:20:10.467Z,12.23
2019-02-18T09:25:08.474Z,12.30
2019-02-18T09:30:05.528Z,12.10
2019-02-18T09:35:02.081Z,11.55
2019-02-18T09:39:58.507Z,11.45
2019-02-18T09:44:54.201Z,12.18
2019-02-18T09:49:50.071Z,12.03
2019-02-18T09:54:46.556Z,11.48
2019-02-18T09:59:42.587Z,12.40
2019-02-18T10:04:38.379Z,11.70
2019-02-18T10:09:34.395Z,11.25
2019-02-18T10:14:30.099Z,10.98
2019-02-18T10:19:26.065Z,10.68
2019-02-18T10:24:21.765Z,11.68
2019-02-18T10:29:17.627Z,10.53
2019-02-18T10:34:13.331Z,10.05
2019-02-18T10:39:09.379Z,10.15
2019-02-18T10:44:05.059Z,9.38
2019-02-18T10:49:01.189Z,10.35
2019-02-18T10:53:57.471Z,10.63
2019-02-18T10:58:53.722Z,10.18
2019-02-18T11:03:49.417Z,9.80
2019-02-18T11:08:45.523Z,9.88
2019-02-18T11:13:41.207Z,9.90
2019-02-18T11:18:37.219Z,9.30
2019-02-18T11:23:32.907Z,9.65
2019-02-18T11:28:29.169Z,10.40
2019-02-18T11:33:24.833Z,9.53
2019-02-18T11:38:20.842Z,9.50
2019-02-18T11:43:16.539Z,9.60
2019-02-18T11:48:12.679Z,10.20
2019-02-18T11:53:08.359Z,9.43
2019-02-18T11:58:05.031Z,10.30
2019-02-18T12:03:03.724Z,9.13
2019-02-18T12:07:58.907Z,9.03
2019-02-18T12:12:55.930Z,9.00
2019-02-18T12:17:51.967Z,9.15
2019-02-18T12:22:47.903Z,9.43
2019-02-18T12:27:43.996Z,8.68
2019-02-18T12:32:39.707Z,8.70
2019-02-18T12:37:35.681Z,8.83
2019-02-18T12:42:31.645Z,8.88
2019-02-18T12:47:27.773Z,9.05
2019-02-18T12:52:24.011Z,8.88
2019-02-18T12:57:19.866Z,8.58
2019-02-18T13:02:15.751Z,8.33
2019-02-18T13:07:11.955Z,8.00
2019-02-18T13:12:08.275Z,7.40
2019-02-18T13:17:04.702Z,8.28
2019-02-18T13:22:00.485Z,8.48
2019-02-18T13:26:57.982Z,8.18
2019-02-18T13:31:53.764Z,7.97
2019-02-18T13:36:49.985Z,8.73
2019-02-18T13:41:46.292Z,8.50
2019-02-18T13:46:42.223Z,7.58
2019-02-18T13:51:37.990Z,7.85
2019-02-18T13:56:33.883Z,8.35
2019-02-18T14:01:29.607Z,9.30
2019-02-18T14:06:25.819Z,9.03
2019-02-18T14:11:21.513Z,9.20
2019-02-18T14:16:17.891Z,8.93
2019-02-18T14:21:13.680Z,9.45
2019-02-18T14:26:09.879Z,8.63
2019-02-18T14:31:06.059Z,7.65
2019-02-18T14:36:01.952Z,8.03
2019-02-18T14:40:57.730Z,8.20
2019-02-18T14:45:54.308Z,8.55
2019-02-18T14:50:56.510Z,9.33
2019-02-18T14:55:48.290Z,8.20
2019-02-18T15:00:44.251Z,7.05
2019-02-18T15:05:40.208Z,6.97
2019-02-18T15:10:35.888Z,7.45
2019-02-18T15:15:31.857Z,6.83
2019-02-18T15:20:27.952Z,7.40
2019-02-18T15:25:23.971Z,7.97
2019-02-18T15:30:19.967Z,8.08
2019-02-18T15:35:16.162Z,7.53
2019-02-18T15:40:14.491Z,7.20
2019-02-18T15:45:10.575Z,7.83
2019-02-18T15:50:09.983Z,8.35
2019-02-18T15:55:06.561Z,6.92
2019-02-18T16:00:03.775Z,7.70
2019-02-18T16:04:59.665Z,8.20
2019-02-18T16:09:55.401Z,7.77
2019-02-18T16:14:51.483Z,7.40
2019-02-18T16:19:47.259Z,7.17
2019-02-18T16:24:43.110Z,5.63
2019-02-18T16:29:39.055Z,5.97
2019-02-18T16:34:34.919Z,5.77
2019-02-18T16:39:30.991Z,4.97
2019-02-18T16:44:28.019Z,5.93
2019-02-18T16:49:23.777Z,4.90
2019-02-18T16:54:19.798Z,4.07
2019-02-18T16:59:15.575Z,4.67
2019-02-18T17:04:11.686Z,3.70
2019-02-18T17:09:10.665Z,3.87
2019-02-18T17:14:06.801Z,4.30
2019-02-18T17:19:02.818Z,4.53
2019-02-18T17:23:58.929Z,4.00
2019-02-18T17:28:54.593Z,3.83
2019-02-18T17:33:50.715Z,3.90
2019-02-18T17:38:46.745Z,3.70
2019-02-18T17:43:43.209Z,3.90
2019-02-18T17:48:39.459Z,4.00
2019-02-18T17:53:35.527Z,3.90
2019-02-18T17:58:31.322Z,4.07
2019-02-18T18:03:27.465Z,4.07
2019-02-18T18:08:23.273Z,3.70
2019-02-18T18:13:24.963Z,3.83
2019-02-18T18:18:16.787Z,4.20
2019-02-18T18:23:12.999Z,4.57
2019-02-18T18:28:08.780Z,4.37
2019-02-18T18:33:04.855Z,4.13
2019-02-18T18:38:00.941Z,4.93
2019-02-18T18:42:56.815Z,4.37
2019-02-18T18:47:53.665Z,4.40
2019-02-18T18:52:49.557Z,4.77
2019-02-18T18:57:45.269Z,4.20
2019-02-18T19:02:41.277Z,4.73
2019-02-18T19:07:37.327Z,4.83
2019-02-18T19:12:33.185Z,5.13
2019-02-18T19:17:28.867Z,4.70
2019-02-18T19:22:24.755Z,4.23
2019-02-18T19:27:20.607Z,4.37
2019-02-18T19:32:16.920Z,3.97
2019-02-18T19:37:12.677Z,3.70
2019-02-18T19:42:09.075Z,3.80
2019-02-18T19:47:04.762Z,3.83
2019-02-18T19:52:01.477Z,3.93
2019-02-18T19:56:57.591Z,3.83
2019-02-18T20:01:53.440Z,3.93
2019-02-18T20:06:49.109Z,3.93
2019-02-18T20:11:45.202Z,3.70
2019-02-18T20:16:40.971Z,4.03
2019-02-18T20:21:36.854Z,4.10
2019-02-18T20:26:32.558Z,3.90
2019-02-18T20:31:28.637Z,3.47
2019-02-18T20:36:24.407Z,4.30
2019-02-18T20:41:20.246Z,3.40
2019-02-18T20:46:16.240Z,4.00
2019-02-18T20:51:12.217Z,4.17
2019-02-18T20:56:09.281Z,3.97
2019-02-18T21:01:06.159Z,4.00
2019-02-18T21:06:01.925Z,5.07
2019-02-18T21:10:57.685Z,5.53
2019-02-18T21:15:53.447Z,6.30
2019-02-18T21:20:51.190Z,5.30
2019-02-18T21:25:46.943Z,4.30
2019-02-18T21:30:43.025Z,5.07
2019-02-18T21:35:38.812Z,4.60
2019-02-18T21:40:35.075Z,4.30
2019-02-18T21:45:30.773Z,3.83
2019-02-18T21:50:26.663Z,4.80
2019-02-18T21:55:22.339Z,5.33
2019-02-18T22:00:22.279Z,5.80
2019-02-18T22:05:18.077Z,6.40
2019-02-18T22:10:14.338Z,6.63
2019-02-18T22:15:11.202Z,5.90
2019-02-18T22:20:08.531Z,6.07
2019-02-18T22:25:06.017Z,6.00
2019-02-18T22:30:03.063Z,5.37
2019-02-18T22:34:58.748Z,6.33
2019-02-18T22:39:54.605Z,6.37
2019-02-18T22:44:50.283Z,5.70
2019-02-18T22:49:46.185Z,7.17
2019-02-18T22:54:41.863Z,5.63
2019-02-18T22:59:38.293Z,5.40
2019-02-18T23:04:33.963Z,5.83
2019-02-18T23:09:30.117Z,6.03
2019-02-18T23:14:25.795Z,5.90
2019-02-18T23:19:21.695Z,5.37
2019-02-18T23:24:17.437Z,5.73
2019-02-18T23:29:13.401Z,5.53
2019-02-18T23:34:09.393Z,5.90
2019-02-18T23:39:06.287Z,5.33
2019-02-18T23:44:02.129Z,5.53
2019-02-18T23:48:58.035Z,5.90
2019-02-18T23:53:54.279Z,6.17
2019-02-18T23:58:50.154Z,6.20
